Time;durP1;ratioP1;P1;durP2;ratioP2;P2;SDS_P1;SDS_P2;PMS_P1;PMS_P2;Temp;Humidity;BMP_temperature;BMP_pressure;BME280_temperature;BME280_humidity;BME280_pressure;Samples;Min_cycle;Max_cycle;Signal;HPM_P1;HPM_P2
2022/09/06 00:00:53;;;;;;;5.72;2.20;;;19.30;60.10;;;;;;5080412;28;20047;-65
2022/09/06 00:03:19;;;;;;;2.05;1.83;;;19.30;60.00;;;;;;5095093;28;20029;-64
2022/09/06 00:05:44;;;;;;;6.55;2.30;;;19.30;60.00;;;;;;5094788;28;20035;-64
2022/09/06 00:08:10;;;;;;;4.00;2.33;;;19.20;60.00;;;;;;5085931;28;20029;-63
2022/09/06 00:10:36;;;;;;;4.53;1.98;;;19.20;60.20;;;;;;5093145;28;20052;-65
2022/09/06 00:13:06;;;;;;;2.42;1.95;;;19.10;60.40;;;;;;5088982;28;20395;-64
2022/09/06 00:15:33;;;;;;;4.03;2.20;;;19.10;60.90;;;;;;5073043;28;20024;-64
2022/09/06 00:18:00;;;;;;;4.57;1.98;;;19.10;60.60;;;;;;5108913;28;20016;-64
2022/09/06 00:20:27;;;;;;;3.55;2.10;;;19.00;60.70;;;;;;5101370;28;20028;-65
2022/09/06 00:23:01;;;;;;;3.78;1.90;;;19.00;60.80;;;;;;5071976;28;20032;-64
2022/09/06 00:25:28;;;;;;;2.70;2.08;;;19.00;61.30;;;;;;5080133;28;20039;-64
2022/09/06 00:27:58;;;;;;;4.00;1.90;;;18.90;60.80;;;;;;5084672;28;20029;-63
2022/09/06 00:30:24;;;;;;;3.17;2.00;;;18.90;61.40;;;;;;5083006;28;20047;-64
2022/09/06 00:32:50;;;;;;;3.20;1.88;;;18.90;61.10;;;;;;5078466;28;20024;-64
2022/09/06 00:35:17;;;;;;;3.53;2.20;;;18.80;61.00;;;;;;5091628;28;20044;-64
2022/09/06 00:37:42;;;;;;;4.53;2.30;;;18.80;61.30;;;;;;5083039;28;20044;-64
2022/09/06 00:40:08;;;;;;;4.70;2.38;;;18.80;61.50;;;;;;5080082;28;20016;-64
2022/09/06 00:42:35;;;;;;;3.30;2.13;;;18.70;61.50;;;;;;5087874;28;20114;-64
2022/09/06 00:45:01;;;;;;;5.10;2.30;;;18.70;61.50;;;;;;5075704;28;20036;-64
2022/09/06 00:47:28;;;;;;;2.72;2.30;;;18.70;61.60;;;;;;5075766;28;20051;-64
2022/09/06 00:49:56;;;;;;;3.83;2.15;;;18.70;61.70;;;;;;5092513;28;20020;-64
2022/09/06 00:52:23;;;;;;;3.88;2.00;;;18.60;61.80;;;;;;5072823;28;20040;-64
2022/09/06 00:54:50;;;;;;;2.70;2.08;;;18.60;61.70;;;;;;5089189;28;20024;-63
2022/09/06 00:57:16;;;;;;;5.03;1.90;;;18.60;61.80;;;;;;5102905;28;20020;-65
2022/09/06 00:59:44;;;;;;;4.50;2.17;;;18.60;61.80;;;;;;5070102;28;20095;-64
2022/09/06 01:02:10;;;;;;;4.20;2.53;;;18.50;61.90;;;;;;5087480;28;20408;-65
2022/09/06 01:04:37;;;;;;;2.13;1.92;;;18.50;61.90;;;;;;5095547;28;20074;-65
2022/09/06 01:07:29;;;;;;;2.42;1.95;;;18.50;62.10;;;;;;5067537;28;20033;-65
2022/09/06 01:10:18;;;;;;;4.30;1.65;;;18.40;62.40;;;;;;5060237;28;20152;-65
2022/09/06 01:13:12;;;;;;;5.05;2.13;;;18.40;62.70;;;;;;5051393;28;20033;-63
2022/09/06 01:15:44;;;;;;;3.67;1.90;;;18.40;62.50;;;;;;5052275;28;20037;-65
2022/09/06 01:18:12;;;;;;;2.17;1.90;;;18.30;62.40;;;;;;5053061;28;20163;-65
2022/09/06 01:20:40;;;;;;;3.83;2.05;;;18.30;62.10;;;;;;5073127;28;20037;-65
2022/09/06 01:23:09;;;;;;;4.93;2.08;;;18.30;62.50;;;;;;5047592;28;20036;-64
2022/09/06 01:25:34;;;;;;;2.88;1.92;;;18.20;62.50;;;;;;5063789;28;20105;-63
2022/09/06 01:28:06;;;;;;;5.53;2.10;;;18.20;62.30;;;;;;5077910;28;20037;-64
2022/09/06 01:30:36;;;;;;;3.22;1.90;;;18.20;62.70;;;;;;5075485;28;20076;-65
2022/09/06 01:33:07;;;;;;;5.15;2.92;;;18.20;62.50;;;;;;5061313;28;20037;-64
2022/09/06 01:35:39;;;;;;;3.20;2.03;;;18.10;62.50;;;;;;5065995;28;20024;-65
2022/09/06 01:38:07;;;;;;;3.15;1.98;;;18.10;62.60;;;;;;5052424;28;20033;-63
2022/09/06 01:40:35;;;;;;;3.95;2.10;;;18.10;62.40;;;;;;5072707;28;20043;-64
2022/09/06 01:43:04;;;;;;;8.20;1.88;;;18.10;62.50;;;;;;5070450;28;20032;-64
2022/09/06 01:46:06;;;;;;;3.67;2.13;;;18.00;62.60;;;;;;5062616;28;20032;-63
2022/09/06 01:49:05;;;;;;;2.72;1.77;;;18.00;63.30;;;;;;5068381;28;20436;-64
2022/09/06 01:51:56;;;;;;;2.00;1.83;;;17.90;62.80;;;;;;5089329;28;20088;-63
2022/09/06 01:54:46;;;;;;;4.32;2.00;;;17.90;63.00;;;;;;5083117;28;20121;-62
2022/09/06 01:57:17;;;;;;;3.53;2.28;;;17.90;63.50;;;;;;5078579;28;20030;-64
2022/09/06 02:00:09;;;;;;;2.05;1.80;;;17.90;62.50;;;;;;5066397;28;20028;-64
2022/09/06 02:02:41;;;;;;;5.32;2.10;;;17.80;63.60;;;;;;5065507;28;20107;-64
2022/09/06 02:05:41;;;;;;;1.70;1.60;;;17.80;63.20;;;;;;5084092;28;20029;-63
2022/09/06 02:08:12;;;;;;;2.92;1.90;;;17.80;63.70;;;;;;5085888;28;20372;-64
2022/09/06 02:11:00;;;;;;;3.10;2.05;;;17.80;62.90;;;;;;5078487;28;20528;-63
2022/09/06 02:13:32;;;;;;;6.15;2.10;;;17.80;63.80;;;;;;5085023;28;20483;-64
2022/09/06 02:16:02;;;;;;;3.20;1.83;;;17.70;63.20;;;;;;5080773;28;20111;-64
2022/09/06 02:18:37;;;;;;;2.22;1.80;;;17.70;63.10;;;;;;5081477;28;20032;-63
2022/09/06 02:21:05;;;;;;;4.32;2.20;;;17.60;63.20;;;;;;5067784;28;20032;-65
2022/09/06 02:23:34;;;;;;;2.08;1.88;;;17.60;62.90;;;;;;5068941;28;20075;-64
2022/09/06 02:26:14;;;;;;;3.45;2.00;;;17.60;63.00;;;;;;5085355;28;20013;-62
2022/09/06 02:28:40;;;;;;;4.85;2.10;;;17.60;63.70;;;;;;5071204;28;20055;-64
2022/09/06 02:31:15;;;;;;;6.10;2.15;;;17.60;63.20;;;;;;5068547;28;20057;-64
2022/09/06 02:33:44;;;;;;;2.63;1.92;;;17.50;63.70;;;;;;5079539;28;20090;-65
2022/09/06 02:36:10;;;;;;;2.17;1.77;;;17.50;63.50;;;;;;5086319;28;20101;-62
2022/09/06 02:38:38;;;;;;;2.17;1.98;;;17.50;63.30;;;;;;5077034;28;20025;-64
2022/09/06 02:41:05;;;;;;;2.35;1.80;;;17.40;63.50;;;;;;5092198;28;20055;-63
2022/09/06 02:43:30;;;;;;;3.88;1.92;;;17.40;63.40;;;;;;5092126;28;20033;-64
2022/09/06 02:45:56;;;;;;;5.63;2.20;;;17.40;63.40;;;;;;5094611;28;20036;-64
2022/09/06 02:48:21;;;;;;;4.13;2.10;;;17.40;63.40;;;;;;5080943;28;20028;-63
2022/09/06 02:50:47;;;;;;;3.67;2.00;;;17.40;63.40;;;;;;5106956;28;20027;-64
2022/09/06 02:53:14;;;;;;;3.03;2.10;;;17.40;63.50;;;;;;5100427;28;20066;-64
2022/09/06 02:55:40;;;;;;;2.10;1.90;;;17.30;63.60;;;;;;5083836;28;20052;-64
2022/09/06 02:58:10;;;;;;;5.30;2.13;;;17.30;63.60;;;;;;5071582;28;20083;-64
2022/09/06 03:00:36;;;;;;;4.55;2.03;;;17.30;64.00;;;;;;5097957;28;20054;-64
2022/09/06 03:03:02;;;;;;;4.63;2.10;;;17.20;63.70;;;;;;5102554;28;20024;-64
2022/09/06 03:05:28;;;;;;;8.23;2.67;;;17.20;63.80;;;;;;5099485;28;20047;-63
2022/09/06 03:07:55;;;;;;;4.32;2.17;;;17.20;64.00;;;;;;5086642;28;20107;-63
2022/09/06 03:10:21;;;;;;;2.15;1.95;;;17.10;64.00;;;;;;5089253;28;20114;-64
2022/09/06 03:12:47;;;;;;;5.60;1.92;;;17.10;64.10;;;;;;5105849;28;20160;-63
2022/09/06 03:15:14;;;;;;;5.32;2.25;;;17.00;64.20;;;;;;5106266;28;20028;-64
2022/09/06 03:17:41;;;;;;;3.65;2.10;;;17.00;64.40;;;;;;5106613;28;20024;-64
2022/09/06 03:20:10;;;;;;;2.80;2.15;;;17.00;64.40;;;;;;5107635;28;20643;-63
2022/09/06 03:22:38;;;;;;;3.20;2.00;;;17.00;64.50;;;;;;5090632;28;20106;-64
2022/09/06 03:25:08;;;;;;;2.83;2.10;;;17.00;64.40;;;;;;5088009;28;20025;-63
2022/09/06 03:27:33;;;;;;;2.20;2.00;;;17.00;64.40;;;;;;5087124;28;20025;-65
2022/09/06 03:30:01;;;;;;;3.53;2.17;;;16.90;64.40;;;;;;5071721;28;20376;-63
2022/09/06 03:32:27;;;;;;;3.75;2.05;;;16.90;64.50;;;;;;5088046;28;20033;-64
2022/09/06 03:34:52;;;;;;;2.50;2.30;;;16.90;64.70;;;;;;5085840;28;20086;-64
2022/09/06 03:37:18;;;;;;;2.17;1.90;;;16.90;64.70;;;;;;5084115;28;20032;-64
2022/09/06 03:39:44;;;;;;;2.45;2.00;;;16.90;64.80;;;;;;5082042;28;20043;-64
2022/09/06 03:42:09;;;;;;;2.97;1.98;;;16.80;64.80;;;;;;5070588;28;20094;-64
2022/09/06 03:44:35;;;;;;;5.43;2.20;;;16.80;64.80;;;;;;5106478;28;20024;-64
2022/09/06 03:47:02;;;;;;;4.50;2.05;;;16.80;64.80;;;;;;5079580;28;20055;-64
2022/09/06 03:49:28;;;;;;;2.45;1.92;;;16.80;64.80;;;;;;5101068;28;20036;-64
2022/09/06 03:51:53;;;;;;;2.92;2.30;;;16.80;64.90;;;;;;5088238;28;20399;-65
2022/09/06 03:54:19;;;;;;;3.75;2.17;;;16.80;64.90;;;;;;5090654;28;20068;-63
2022/09/06 03:56:45;;;;;;;3.15;2.20;;;16.80;65.00;;;;;;5081425;28;20063;-65
2022/09/06 03:59:10;;;;;;;3.53;1.92;;;16.80;65.10;;;;;;5085013;28;20036;-64
2022/09/06 04:01:36;;;;;;;4.38;2.92;;;16.70;65.00;;;;;;5094731;28;20084;-63
2022/09/06 04:04:02;;;;;;;5.60;4.22;;;16.70;65.60;;;;;;5099168;28;20092;-63
2022/09/06 04:06:27;;;;;;;5.32;4.05;;;16.70;67.00;;;;;;5097399;28;20032;-65
2022/09/06 04:08:53;;;;;;;6.05;4.07;;;16.70;67.80;;;;;;5099324;28;20021;-65
2022/09/06 04:11:19;;;;;;;7.43;4.05;;;16.80;68.10;;;;;;5095961;28;20052;-64
2022/09/06 04:13:44;;;;;;;6.97;3.55;;;16.90;68.50;;;;;;5096594;28;20037;-64
2022/09/06 04:16:10;;;;;;;8.68;3.60;;;17.00;68.60;;;;;;5097648;28;20497;-64
2022/09/06 04:18:36;;;;;;;6.07;3.88;;;17.00;68.60;;;;;;5098874;28;20040;-64
2022/09/06 04:21:01;;;;;;;3.97;3.45;;;17.10;68.60;;;;;;5086635;28;20032;-64
2022/09/06 04:23:28;;;;;;;6.25;3.60;;;17.20;68.20;;;;;;5072564;28;20020;-64
2022/09/06 04:25:56;;;;;;;8.13;3.95;;;17.30;68.80;;;;;;5091051;28;20075;-63
2022/09/06 04:28:23;;;;;;;4.90;3.53;;;17.30;68.50;;;;;;5106292;28;20035;-65
2022/09/06 04:30:54;;;;;;;3.80;3.42;;;17.40;68.40;;;;;;5089343;28;20044;-64
2022/09/06 04:33:20;;;;;;;4.00;2.97;;;17.40;68.60;;;;;;5106172;28;20032;-64
2022/09/06 04:35:49;;;;;;;4.00;3.55;;;17.40;68.20;;;;;;5080992;28;20074;-63
2022/09/06 04:38:15;;;;;;;4.72;3.53;;;17.50;68.80;;;;;;5066191;28;20037;-65
2022/09/06 04:40:41;;;;;;;6.35;3.75;;;17.50;68.50;;;;;;5085329;28;20025;-64
2022/09/06 04:43:07;;;;;;;7.47;3.45;;;17.60;68.50;;;;;;5102398;28;20019;-64
2022/09/06 04:45:32;;;;;;;9.07;3.55;;;17.60;68.20;;;;;;5085349;28;20549;-64
2022/09/06 04:47:58;;;;;;;15.52;4.75;;;17.70;68.40;;;;;;5105716;28;20032;-63
2022/09/06 04:50:24;;;;;;;8.75;5.13;;;17.70;69.00;;;;;;5084891;28;20029;-63
2022/09/06 04:52:49;;;;;;;8.13;2.47;;;17.80;70.70;;;;;;5081306;28;20388;-64
2022/09/06 04:55:15;;;;;;;8.23;1.50;;;17.80;69.40;;;;;;5081637;28;20055;-61
2022/09/06 04:57:41;;;;;;;6.25;1.65;;;17.90;68.90;;;;;;5080960;28;20079;-63
2022/09/06 05:00:07;;;;;;;4.72;1.10;;;18.10;69.00;;;;;;5089290;28;20028;-61
2022/09/06 05:02:33;;;;;;;4.15;1.58;;;18.30;68.50;;;;;;5069124;28;20032;-62
2022/09/06 05:04:58;;;;;;;5.88;1.90;;;18.50;69.00;;;;;;5088583;28;20035;-62
2022/09/06 05:07:24;;;;;;;8.13;1.98;;;18.60;68.70;;;;;;5086868;28;20086;-64
2022/09/06 05:09:49;;;;;;;3.20;1.98;;;18.70;68.40;;;;;;5090116;28;20090;-63
2022/09/06 05:12:15;;;;;;;5.70;2.05;;;18.80;68.00;;;;;;5086378;28;20021;-65
2022/09/06 05:14:41;;;;;;;5.70;2.03;;;18.90;68.10;;;;;;5084678;28;20119;-63
2022/09/06 05:17:06;;;;;;;4.78;1.70;;;18.90;68.20;;;;;;5090163;28;20063;-63
2022/09/06 05:19:32;;;;;;;4.68;1.70;;;18.90;67.90;;;;;;5105339;28;20043;-62
2022/09/06 05:21:57;;;;;;;2.95;1.55;;;18.90;68.00;;;;;;5089342;28;20032;-62
2022/09/06 05:24:23;;;;;;;2.50;1.50;;;18.90;68.80;;;;;;5111147;28;20054;-62
2022/09/06 05:26:49;;;;;;;4.63;1.65;;;18.90;68.50;;;;;;5085788;28;20094;-63
2022/09/06 05:29:14;;;;;;;4.47;1.85;;;18.90;68.30;;;;;;5078494;28;20036;-64
2022/09/06 05:31:40;;;;;;;3.15;1.77;;;18.90;68.50;;;;;;5100644;28;20815;-63
2022/09/06 05:34:05;;;;;;;5.18;1.95;;;18.90;68.70;;;;;;5084442;28;20041;-63
2022/09/06 05:36:32;;;;;;;6.00;3.15;;;18.90;68.90;;;;;;5102516;28;20039;-63
2022/09/06 05:38:57;;;;;;;5.97;3.38;;;18.80;68.90;;;;;;5070931;28;20078;-63
2022/09/06 05:41:24;;;;;;;7.10;3.70;;;18.90;68.80;;;;;;5097547;28;20017;-63
2022/09/06 05:43:49;;;;;;;8.13;3.35;;;18.80;69.00;;;;;;5084256;28;20024;-63
2022/09/06 05:46:15;;;;;;;6.32;3.53;;;18.80;69.10;;;;;;5087167;28;20129;-62
2022/09/06 05:48:41;;;;;;;5.32;3.58;;;18.90;69.30;;;;;;5070576;28;20073;-63
2022/09/06 05:51:12;;;;;;;6.78;3.47;;;18.90;69.50;;;;;;5075318;28;20032;-63
2022/09/06 05:53:43;;;;;;;9.07;3.78;;;18.90;69.90;;;;;;5085326;28;20040;-62
2022/09/06 05:56:11;;;;;;;9.07;4.43;;;18.90;71.30;;;;;;5078733;28;20025;-63
2022/09/06 05:58:37;;;;;;;8.52;3.50;;;19.00;70.30;;;;;;5090924;28;20025;-62
2022/09/06 06:01:04;;;;;;;3.45;3.03;;;19.10;70.50;;;;;;5088147;28;20167;-62
2022/09/06 06:03:29;;;;;;;4.00;2.50;;;19.10;70.80;;;;;;5100671;28;20024;-62
2022/09/06 06:05:55;;;;;;;4.15;2.03;;;19.10;70.30;;;;;;5086752;28;20054;-64
2022/09/06 06:08:21;;;;;;;3.03;1.70;;;19.20;70.00;;;;;;5084378;28;20115;-63
2022/09/06 06:10:46;;;;;;;3.08;1.83;;;19.10;69.80;;;;;;5103157;28;20024;-64
2022/09/06 06:13:12;;;;;;;3.95;2.10;;;19.20;69.70;;;;;;5076434;28;20045;-64
2022/09/06 06:15:37;;;;;;;2.63;1.95;;;19.20;69.70;;;;;;5071884;28;20033;-64
2022/09/06 06:18:03;;;;;;;5.25;2.10;;;19.20;70.20;;;;;;5082155;28;20039;-65
2022/09/06 06:20:29;;;;;;;3.25;2.05;;;19.20;70.40;;;;;;5104412;28;20032;-63
2022/09/06 06:22:54;;;;;;;3.33;1.95;;;19.30;70.60;;;;;;5073115;28;20025;-63
2022/09/06 06:25:24;;;;;;;3.83;2.08;;;19.30;70.90;;;;;;5103716;28;20066;-63
2022/09/06 06:27:51;;;;;;;5.85;2.47;;;19.40;70.90;;;;;;5081046;28;20029;-62
2022/09/06 06:30:17;;;;;;;7.28;2.55;;;19.40;71.00;;;;;;5098120;28;20068;-64
2022/09/06 06:32:42;;;;;;;6.82;3.25;;;19.50;71.00;;;;;;5073125;28;20067;-63
2022/09/06 06:35:09;;;;;;;8.40;3.20;;;19.50;70.60;;;;;;5088997;28;20025;-62
2022/09/06 06:37:34;;;;;;;6.68;3.40;;;19.60;70.50;;;;;;5080040;28;20051;-63
2022/09/06 06:40:00;;;;;;;8.73;3.35;;;19.60;70.40;;;;;;5098751;28;20025;-62
2022/09/06 06:42:26;;;;;;;6.95;3.53;;;19.60;70.50;;;;;;5087416;28;20634;-63
2022/09/06 06:44:52;;;;;;;4.85;3.38;;;19.60;70.40;;;;;;5104199;28;20109;-63
2022/09/06 06:47:18;;;;;;;7.18;3.30;;;19.70;70.30;;;;;;5094173;28;20078;-62
2022/09/06 06:49:44;;;;;;;3.13;2.83;;;19.70;70.40;;;;;;5093087;28;20087;-61
2022/09/06 06:52:10;;;;;;;10.63;3.58;;;19.70;70.40;;;;;;5093991;28;20083;-63
2022/09/06 06:54:36;;;;;;;4.57;3.83;;;19.70;70.50;;;;;;5098244;28;20086;-62
2022/09/06 06:57:03;;;;;;;5.57;3.78;;;19.70;70.30;;;;;;5094893;28;20040;-63
2022/09/06 06:59:29;;;;;;;5.88;3.60;;;19.70;70.30;;;;;;5100295;28;20115;-62
2022/09/06 07:01:54;;;;;;;6.78;3.55;;;19.80;70.50;;;;;;5088349;28;20032;-63
2022/09/06 07:04:20;;;;;;;5.65;3.70;;;19.80;70.60;;;;;;5096179;28;20020;-64
2022/09/06 07:06:50;;;;;;;9.63;4.07;;;19.80;70.70;;;;;;5100658;28;20022;-62
2022/09/06 07:09:17;;;;;;;9.00;4.00;;;19.90;71.00;;;;;;5089061;28;20027;-63
2022/09/06 07:11:43;;;;;;;7.65;3.42;;;19.90;71.10;;;;;;5077560;28;20039;-63
2022/09/06 07:14:09;;;;;;;7.07;4.05;;;19.90;71.00;;;;;;5102586;28;20032;-64
2022/09/06 07:16:35;;;;;;;5.60;3.92;;;19.90;71.00;;;;;;5083977;28;20353;-64
2022/09/06 07:19:00;;;;;;;9.20;4.22;;;20.00;71.20;;;;;;5105272;28;20485;-62
2022/09/06 07:21:26;;;;;;;7.80;3.90;;;20.00;71.40;;;;;;5091183;28;20028;-62
2022/09/06 07:23:53;;;;;;;6.50;4.07;;;20.10;71.40;;;;;;5093811;28;20033;-63
2022/09/06 07:26:22;;;;;;;8.90;4.40;;;20.10;71.60;;;;;;5091796;28;20058;-63
2022/09/06 07:28:54;;;;;;;7.53;4.60;;;20.20;71.60;;;;;;5085126;28;20391;-63
2022/09/06 07:31:20;;;;;;;7.65;4.85;;;20.30;71.50;;;;;;5079458;28;20049;-63
2022/09/06 07:33:46;;;;;;;8.55;4.63;;;20.40;71.20;;;;;;5089504;28;20045;-64
2022/09/06 07:36:12;;;;;;;7.20;4.70;;;20.40;70.80;;;;;;5092124;28;20033;-63
2022/09/06 07:38:37;;;;;;;8.85;4.90;;;20.50;70.80;;;;;;5088323;28;20107;-64
2022/09/06 07:41:08;;;;;;;7.22;4.40;;;20.60;71.00;;;;;;5088332;28;20029;-62
2022/09/06 07:43:35;;;;;;;8.70;4.72;;;20.70;71.70;;;;;;5072872;28;20032;-63
2022/09/06 07:46:05;;;;;;;8.40;4.93;;;20.80;71.60;;;;;;5081967;28;20025;-63
2022/09/06 07:48:33;;;;;;;11.23;4.32;;;20.90;71.60;;;;;;5092243;28;20044;-63
2022/09/06 07:51:28;;;;;;;9.27;4.93;;;21.10;71.70;;;;;;5078868;28;20480;-61
2022/09/06 07:53:57;;;;;;;;;;;21.30;72.30;;;;;;5092076;28;20060;-62
2022/09/06 07:56:23;;;;;;;5.47;4.30;;;21.40;70.40;;;;;;5081328;28;19976;-63
2022/09/06 07:58:50;;;;;;;8.57;4.43;;;21.60;70.20;;;;;;5086015;28;20025;-62
2022/09/06 08:01:16;;;;;;;5.63;4.47;;;21.70;70.70;;;;;;5104664;28;20043;-63
2022/09/06 08:03:42;;;;;;;5.55;4.50;;;21.80;70.50;;;;;;5101179;28;20036;-61
2022/09/06 08:06:08;;;;;;;9.27;4.53;;;21.90;69.90;;;;;;5106851;28;20040;-62
2022/09/06 08:08:34;;;;;;;8.15;4.63;;;22.00;69.80;;;;;;5092112;28;20025;-64
2022/09/06 08:11:00;;;;;;;9.63;4.90;;;22.00;69.30;;;;;;5091358;28;20116;-63
2022/09/06 08:13:25;;;;;;;6.43;4.30;;;22.10;69.60;;;;;;5084828;28;20041;-62
2022/09/06 08:16:06;;;;;;;7.65;4.75;;;22.20;69.50;;;;;;5095669;28;20050;-63
2022/09/06 08:18:32;;;;;;;6.35;4.07;;;22.30;70.40;;;;;;5084741;28;20024;-62
2022/09/06 08:21:07;;;;;;;7.75;4.28;;;22.40;69.60;;;;;;5106137;28;20048;-62
2022/09/06 08:23:34;;;;;;;8.98;4.28;;;22.50;69.50;;;;;;5085704;28;20087;-61
2022/09/06 08:26:00;;;;;;;6.25;3.63;;;22.60;68.90;;;;;;5081807;28;20052;-62
2022/09/06 08:28:26;;;;;;;6.07;4.00;;;22.70;68.40;;;;;;5071131;28;20040;-61
2022/09/06 08:30:51;;;;;;;5.75;4.10;;;22.80;68.20;;;;;;5090402;28;20052;-62
2022/09/06 08:33:20;;;;;;;7.72;3.78;;;22.80;68.20;;;;;;5086282;28;20071;-61
2022/09/06 08:35:59;;;;;;;7.40;4.20;;;22.90;67.90;;;;;;5083525;28;20020;-62
2022/09/06 08:38:25;;;;;;;6.30;4.07;;;23.00;68.00;;;;;;5087421;28;20040;-61
2022/09/06 08:40:53;;;;;;;6.88;4.35;;;23.10;67.80;;;;;;5106030;28;20554;-62
2022/09/06 08:43:20;;;;;;;7.43;4.63;;;23.20;67.80;;;;;;5085566;28;20060;-62
2022/09/06 08:45:51;;;;;;;8.43;4.55;;;23.30;67.50;;;;;;5104539;28;20035;-62
2022/09/06 08:48:18;;;;;;;6.03;4.60;;;23.40;67.60;;;;;;5080512;28;20029;-60
2022/09/06 08:50:52;;;;;;;6.90;4.22;;;23.40;67.40;;;;;;5088980;28;20032;-62
2022/09/06 08:53:19;;;;;;;8.02;4.13;;;23.60;66.80;;;;;;5081887;28;20044;-61
2022/09/06 08:55:54;;;;;;;10.07;4.30;;;23.60;67.40;;;;;;5105532;28;20034;-61
2022/09/06 08:58:57;;;;;;;7.25;3.42;;;23.70;66.50;;;;;;5079213;28;20435;-64
2022/09/06 09:01:31;;;;;;;6.72;3.60;;;23.80;66.80;;;;;;5067321;28;20033;-63
2022/09/06 09:04:01;;;;;;;6.03;3.15;;;24.00;66.40;;;;;;5075869;28;20041;-62
2022/09/06 09:06:28;;;;;;;5.82;3.20;;;24.10;66.40;;;;;;5080468;28;20088;-64
2022/09/06 09:08:57;;;;;;;4.55;2.67;;;24.20;65.80;;;;;;5087807;28;20064;-62
2022/09/06 09:11:24;;;;;;;5.05;2.38;;;24.30;64.60;;;;;;5104732;28;20567;-62
2022/09/06 09:13:58;;;;;;;4.53;1.95;;;24.40;64.60;;;;;;5088955;28;20045;-61
2022/09/06 09:16:25;;;;;;;4.38;2.25;;;24.40;64.00;;;;;;5083056;28;20372;-63
2022/09/06 09:18:57;;;;;;;6.57;2.33;;;24.60;63.90;;;;;;5100554;28;20387;-62
2022/09/06 09:21:25;;;;;;;5.28;1.95;;;24.70;63.90;;;;;;5070304;28;20088;-62
2022/09/06 09:23:54;;;;;;;5.22;2.22;;;24.80;64.20;;;;;;5083871;28;20036;-62
2022/09/06 09:26:23;;;;;;;3.25;1.83;;;25.00;63.90;;;;;;5105387;28;20020;-63
2022/09/06 09:29:11;;;;;;;6.50;2.13;;;25.10;63.40;;;;;;5083580;28;20020;-62
2022/09/06 09:31:46;;;;;;;6.20;2.63;;;25.30;62.50;;;;;;5097905;28;20055;-63
2022/09/06 09:34:13;;;;;;;6.63;2.25;;;25.40;62.50;;;;;;5085964;28;20067;-61
2022/09/06 09:36:40;;;;;;;9.30;2.53;;;25.50;62.50;;;;;;5076740;28;20063;-61
2022/09/06 09:39:10;;;;;;;5.75;2.20;;;25.60;62.30;;;;;;5081519;28;20036;-61
2022/09/06 09:41:39;;;;;;;5.68;2.22;;;25.70;61.40;;;;;;5085221;28;20052;-62
2022/09/06 09:44:15;;;;;;;8.73;2.22;;;25.80;61.70;;;;;;5083654;28;20058;-62
2022/09/06 09:46:40;;;;;;;5.38;2.28;;;25.90;61.10;;;;;;5077493;28;20098;-63
2022/09/06 09:49:27;;;;;;;3.63;1.95;;;26.00;61.10;;;;;;5093425;28;20025;-61
2022/09/06 09:52:12;;;;;;;4.10;2.30;;;26.00;60.70;;;;;;5079952;27;20379;-61
2022/09/06 09:54:43;;;;;;;4.90;2.20;;;26.20;60.20;;;;;;5081933;28;20053;-63
2022/09/06 09:57:12;;;;;;;6.50;2.00;;;26.20;60.00;;;;;;5077999;28;20050;-61
2022/09/06 09:59:44;;;;;;;8.25;2.15;;;26.20;60.00;;;;;;5077364;28;20032;-62
2022/09/06 10:02:29;;;;;;;6.35;1.92;;;26.30;58.60;;;;;;5084947;28;20096;-61
2022/09/06 10:05:12;;;;;;;5.40;2.00;;;26.30;58.90;;;;;;5073247;28;20048;-61
2022/09/06 10:07:51;;;;;;;5.82;2.08;;;26.30;59.20;;;;;;5078622;28;20024;-62
2022/09/06 10:10:25;;;;;;;4.57;2.00;;;26.40;59.00;;;;;;5074696;28;20036;-61
2022/09/06 10:13:30;;;;;;;3.90;1.73;;;26.50;59.20;;;;;;5081384;28;20031;-62
2022/09/06 10:16:02;;;;;;;6.75;2.20;;;26.70;59.00;;;;;;5059734;28;20044;-62
2022/09/06 10:18:30;;;;;;;8.20;2.53;;;26.80;58.50;;;;;;5065781;28;20041;-61
2022/09/06 10:21:03;;;;;;;4.75;2.10;;;26.90;58.30;;;;;;5086399;28;20060;-61
2022/09/06 10:23:31;;;;;;;6.13;2.03;;;26.90;57.50;;;;;;5050098;28;20123;-63
2022/09/06 10:25:59;;;;;;;4.15;1.92;;;27.00;56.90;;;;;;5079431;28;20049;-61
2022/09/06 10:28:29;;;;;;;3.60;1.80;;;27.00;56.80;;;;;;5070185;28;20037;-61
2022/09/06 10:31:14;;;;;;;8.52;2.15;;;27.00;56.70;;;;;;5069549;28;20140;-61
2022/09/06 10:34:17;;;;;;;3.15;2.00;;;27.00;56.90;;;;;;5061747;28;20064;-60
2022/09/06 10:37:12;;;;;;;4.93;1.88;;;27.00;57.00;;;;;;5077642;28;20064;-61
2022/09/06 10:39:37;;;;;;;2.90;1.50;;;27.10;57.30;;;;;;5046609;28;20061;-61
2022/09/06 10:42:39;;;;;;;6.93;1.88;;;27.10;57.60;;;;;;5069989;28;20055;-61
2022/09/06 10:45:26;;;;;;;8.35;2.05;;;27.20;56.90;;;;;;5069118;28;20438;-61
2022/09/06 10:48:07;;;;;;;8.25;2.10;;;27.30;56.70;;;;;;5058507;28;20029;-61
2022/09/06 10:50:47;;;;;;;4.60;1.60;;;27.30;56.50;;;;;;5081056;28;20157;-61
2022/09/06 10:53:26;;;;;;;3.78;1.85;;;27.40;57.00;;;;;;5067027;28;20580;-62
2022/09/06 10:56:11;;;;;;;6.38;2.30;;;27.40;56.00;;;;;;5068743;28;20051;-62
2022/09/06 10:58:58;;;;;;;5.43;2.08;;;27.50;55.70;;;;;;5088106;28;20020;-61
2022/09/06 11:01:37;;;;;;;5.50;1.88;;;27.50;55.60;;;;;;5074525;28;20052;-62
2022/09/06 11:04:08;;;;;;;11.02;2.33;;;27.50;55.20;;;;;;5083969;28;20037;-61
2022/09/06 11:06:42;;;;;;;5.75;1.95;;;27.40;55.30;;;;;;5093582;28;20059;-62
2022/09/06 11:09:49;;;;;;;4.50;1.63;;;27.40;55.60;;;;;;5085181;28;20096;-61
2022/09/06 11:12:36;;;;;;;6.13;1.52;;;27.40;56.60;;;;;;5060351;28;20040;-62
2022/09/06 11:15:03;;;;;;;5.40;1.55;;;27.40;56.40;;;;;;5072337;28;20041;-62
2022/09/06 11:17:32;;;;;;;5.40;1.73;;;27.50;56.00;;;;;;5078438;28;20029;-61
2022/09/06 11:20:16;;;;;;;7.22;1.70;;;27.60;56.20;;;;;;5068494;28;20067;-61
2022/09/06 11:23:03;;;;;;;3.17;1.63;;;27.70;55.60;;;;;;5071632;28;20029;-62
2022/09/06 11:25:37;;;;;;;3.78;1.77;;;27.70;55.00;;;;;;5060287;28;20041;-60
2022/09/06 11:28:07;;;;;;;5.22;1.60;;;27.70;55.30;;;;;;5066761;28;20033;-62
2022/09/06 11:30:33;;;;;;;3.90;1.73;;;27.80;55.70;;;;;;5064365;28;20060;-62
2022/09/06 11:33:21;;;;;;;9.77;2.22;;;27.90;55.50;;;;;;5084287;28;20103;-61
2022/09/06 11:35:47;;;;;;;8.38;2.28;;;27.90;54.50;;;;;;5051961;28;20080;-61
2022/09/06 11:38:15;;;;;;;10.85;2.25;;;28.00;55.10;;;;;;5075320;28;20044;-62
2022/09/06 11:40:48;;;;;;;7.13;2.00;;;28.00;54.50;;;;;;5049603;28;20029;-61
2022/09/06 11:43:35;;;;;;;6.03;2.05;;;28.10;54.40;;;;;;5049865;28;20052;-62
2022/09/06 11:46:00;;;;;;;4.18;1.88;;;28.20;55.30;;;;;;5054950;28;20040;-62
2022/09/06 11:48:28;;;;;;;5.38;1.73;;;28.20;54.90;;;;;;5056917;28;20032;-61
2022/09/06 11:51:05;;;;;;;10.45;2.70;;;28.30;54.20;;;;;;5037592;28;20025;-60
2022/09/06 11:53:46;;;;;;;14.70;2.20;;;28.40;53.60;;;;;;5040181;28;20111;-62
2022/09/06 11:56:29;;;;;;;6.03;1.95;;;28.50;53.90;;;;;;5027370;28;20035;-61
2022/09/06 11:59:10;;;;;;;6.57;1.88;;;28.60;53.90;;;;;;5026241;28;20038;-60
2022/09/06 12:01:37;;;;;;;6.43;2.17;;;28.80;54.00;;;;;;5025136;28;20044;-62
2022/09/06 12:04:05;;;;;;;12.00;2.20;;;28.90;53.90;;;;;;5031397;28;20053;-61
2022/09/06 12:06:42;;;;;;;5.88;2.15;;;29.00;52.10;;;;;;5036701;28;20030;-63
2022/09/06 12:09:38;;;;;;;7.85;2.30;;;29.10;52.40;;;;;;5045528;28;20041;-62
2022/09/06 12:12:05;;;;;;;10.70;1.80;;;29.20;52.70;;;;;;5039307;28;20050;-62
2022/09/06 12:14:47;;;;;;;7.32;1.80;;;29.20;52.50;;;;;;5042648;28;20400;-61
2022/09/06 12:17:13;;;;;;;6.82;1.75;;;29.40;52.20;;;;;;5031266;28;20053;-61
2022/09/06 12:19:46;;;;;;;8.75;2.50;;;29.50;52.90;;;;;;5058396;28;20030;-61
2022/09/06 12:22:28;;;;;;;5.47;1.92;;;29.60;51.60;;;;;;5050122;28;20112;-60
2022/09/06 12:24:59;;;;;;;7.18;2.33;;;29.80;51.20;;;;;;5028220;28;20505;-61
2022/09/06 12:27:33;;;;;;;7.45;2.55;;;29.90;50.40;;;;;;5038155;28;20033;-61
2022/09/06 12:30:03;;;;;;;9.65;1.90;;;30.00;50.50;;;;;;5035439;28;20577;-61
2022/09/06 12:32:48;;;;;;;6.28;1.80;;;30.10;51.20;;;;;;5099025;28;20023;-61
2022/09/06 12:35:20;;;;;;;12.63;2.10;;;30.20;51.40;;;;;;5082890;28;20084;-61
2022/09/06 12:38:06;;;;;;;8.80;1.92;;;30.40;50.70;;;;;;5067516;28;20068;-62
2022/09/06 12:40:40;;;;;;;6.93;2.25;;;30.60;50.30;;;;;;5065638;28;20055;-62
2022/09/06 12:43:09;;;;;;;5.05;1.77;;;30.70;48.90;;;;;;5082609;28;20067;-61
2022/09/06 12:45:40;;;;;;;7.05;2.03;;;30.80;49.40;;;;;;5096211;28;20055;-63
2022/09/06 12:48:09;;;;;;;9.48;1.70;;;30.80;49.20;;;;;;5076755;28;20032;-61
2022/09/06 12:50:36;;;;;;;8.32;1.85;;;30.80;49.00;;;;;;5082561;28;20028;-61
2022/09/06 12:53:15;;;;;;;6.28;1.77;;;30.80;49.30;;;;;;5080182;28;20043;-61
2022/09/06 12:55:40;;;;;;;10.07;1.88;;;30.70;48.30;;;;;;5070910;28;20100;-62
2022/09/06 12:58:08;;;;;;;8.40;2.10;;;30.70;48.20;;;;;;5082259;28;20055;-61
2022/09/06 13:00:41;;;;;;;21.80;2.97;;;30.60;48.60;;;;;;5099836;28;20032;-61
2022/09/06 13:03:36;;;;;;;5.80;2.40;;;30.60;48.90;;;;;;5082972;28;20039;-61